Time;durP1;ratioP1;P1;durP2;ratioP2;P2;SDS_P1;SDS_P2;PMS_P1;PMS_P2;Temp;Humidity;BMP_temperature;BMP_pressure;BME280_temperature;BME280_humidity;BME280_pressure;Samples;Min_cycle;Max_cycle;Signal;HPM_P1;HPM_P2
2022/04/29 00:00:18;;;;;;;27.77;11.32;;;;;;;6.51;100.00;99893.72;4385203;32;20315;-79
2022/04/29 00:03:04;;;;;;;26.35;12.02;;;;;;;6.60;100.00;99901.53;4375477;32;20393;-75
2022/04/29 00:05:30;;;;;;;25.65;11.93;;;;;;;6.52;100.00;99895.34;4386380;32;20397;-75
2022/04/29 00:07:57;;;;;;;33.22;11.88;;;;;;;6.26;100.00;99860.50;4384035;32;20030;-77
2022/04/29 00:10:25;;;;;;;34.75;12.60;;;;;;;6.25;100.00;99850.81;4371203;32;20023;-74
2022/04/29 00:12:53;;;;;;;24.33;11.88;;;;;;;6.32;100.00;99862.38;4372985;32;20501;-74
2022/04/29 00:15:21;;;;;;;28.75;13.35;;;;;;;6.59;100.00;99899.88;4373398;32;20064;-73
2022/04/29 00:17:48;;;;;;;31.05;14.82;;;;;;;6.20;100.00;99832.69;4385279;32;20026;-74
2022/04/29 00:20:15;;;;;;;31.05;14.85;;;;;;;6.60;100.00;99898.88;4384357;32;20082;-75
2022/04/29 00:22:44;;;;;;;33.40;13.90;;;;;;;6.57;100.00;99892.06;4372657;32;20081;-74
2022/04/29 00:25:11;;;;;;;38.83;14.45;;;;;;;6.38;100.00;99856.19;4383903;32;20049;-76
2022/04/29 00:27:40;;;;;;;36.70;15.60;;;;;;;6.63;100.00;99901.13;4367140;32;20035;-79
2022/04/29 00:30:09;;;;;;;30.60;14.75;;;;;;;6.44;100.00;99850.03;4369653;32;20068;-76
2022/04/29 00:32:37;;;;;;;30.10;12.90;;;;;;;6.75;100.00;99887.97;4386630;32;20040;-76
2022/04/29 00:35:06;;;;;;;25.27;12.73;;;;;;;6.61;100.00;99866.56;4372619;32;20061;-76
2022/04/29 00:37:42;;;;;;;29.12;13.00;;;;;;;6.77;100.00;99884.09;4369252;32;20024;-79
2022/04/29 00:40:15;;;;;;;34.80;13.10;;;;;;;6.59;100.00;99851.72;4371893;32;20056;-76
2022/04/29 00:42:43;;;;;;;33.00;12.00;;;;;;;6.58;100.00;99850.09;4361360;32;20045;-76
2022/04/29 00:45:12;;;;;;;19.80;10.68;;;;;;;6.76;100.00;99885.09;4357132;32;20069;-78
2022/04/29 00:47:38;;;;;;;23.87;11.32;;;;;;;6.69;100.00;99881.59;4369912;32;20031;-75
2022/04/29 00:50:06;;;;;;;19.87;11.23;;;;;;;6.51;100.00;99845.53;4372054;32;20038;-75
2022/04/29 00:52:36;;;;;;;24.67;11.12;;;;;;;5.98;100.00;99765.19;4385376;32;20044;-75
2022/04/29 00:55:07;;;;;;;21.92;11.65;;;;;;;6.65;100.00;99867.81;4371994;32;20028;-75
2022/04/29 00:57:50;;;;;;;20.08;11.73;;;;;;;6.72;100.00;99873.16;4369053;32;20039;-76
2022/04/29 01:00:18;;;;;;;23.33;12.05;;;;;;;6.73;100.00;99875.62;4386030;32;20039;-74
2022/04/29 01:02:50;;;;;;;27.87;11.73;;;;;;;6.65;100.00;99872.31;4385539;32;20043;-75
2022/04/29 01:05:22;;;;;;;23.12;12.32;;;;;;;6.62;100.00;99872.72;4370981;32;20417;-76
2022/04/29 01:07:51;;;;;;;22.42;11.20;;;;;;;6.61;100.00;99877.25;4366327;32;20051;-76
2022/04/29 01:10:22;;;;;;;20.80;10.95;;;;;;;5.79;100.00;99740.84;4370886;32;20061;-76
2022/04/29 01:12:55;;;;;;;35.78;11.77;;;;;;;6.34;100.00;99821.00;4360419;32;20034;-76
2022/04/29 01:15:23;;;;;;;20.88;11.00;;;;;;;6.74;100.00;99871.09;4367630;32;20039;-76
2022/04/29 01:17:54;;;;;;;24.27;10.73;;;;;;;6.77;100.00;99869.88;4374467;32;20105;-77
2022/04/29 01:20:26;;;;;;;20.30;11.00;;;;;;;6.82;100.00;99867.41;4385470;32;20471;-77
2022/04/29 01:22:56;;;;;;;18.12;9.65;;;;;;;6.82;100.00;99873.56;4385546;32;20074;-77
2022/04/29 01:25:23;;;;;;;35.05;10.15;;;;;;;6.39;100.00;99815.06;4370555;32;20049;-77
2022/04/29 01:27:51;;;;;;;17.90;9.52;;;;;;;6.45;100.00;99830.31;4371842;32;20086;-77
2022/04/29 01:30:20;;;;;;;18.17;10.82;;;;;;;6.64;100.00;99870.69;4385464;32;20066;-77
2022/04/29 01:32:47;;;;;;;21.10;9.05;;;;;;;6.61;100.00;99863.06;4356805;32;20387;-77
2022/04/29 01:35:15;;;;;;;21.85;9.88;;;;;;;6.31;100.00;99823.28;4371249;32;20023;-79
2022/04/29 01:37:44;;;;;;;21.85;9.90;;;;;;;6.52;100.00;99863.22;4372046;32;20054;-77
2022/04/29 01:40:12;;;;;;;18.98;9.68;;;;;;;6.43;100.00;99859.13;4384272;32;20057;-76
2022/04/29 01:42:40;;;;;;;23.20;9.70;;;;;;;6.43;100.00;99863.63;4385254;32;20065;-77
2022/04/29 01:45:08;;;;;;;17.30;8.52;;;;;;;6.36;100.00;99858.25;4371287;32;20043;-80
2022/04/29 01:47:37;;;;;;;18.48;8.90;;;;;;;6.33;100.00;99858.66;4367708;32;20067;-77
2022/04/29 01:50:05;;;;;;;12.10;8.10;;;;;;;6.29;100.00;99852.09;4359575;32;20117;-76
2022/04/29 01:52:34;;;;;;;12.25;8.02;;;;;;;6.26;100.00;99863.19;4384928;32;20105;-76
2022/04/29 01:55:01;;;;;;;19.08;9.20;;;;;;;5.71;100.00;99775.78;4369142;32;20458;-77
2022/04/29 01:57:29;;;;;;;15.38;8.73;;;;;;;6.21;100.00;99854.91;4371372;32;20113;-76
2022/04/29 01:59:57;;;;;;;20.77;9.10;;;;;;;5.99;100.00;99814.97;4367974;32;20046;-76
2022/04/29 02:02:25;;;;;;;20.25;9.90;;;;;;;6.18;100.00;99843.59;4367430;32;20020;-76
2022/04/29 02:04:51;;;;;;;25.73;9.45;;;;;;;6.16;100.00;99848.34;4353636;32;20028;-79
2022/04/29 02:07:19;;;;;;;23.58;9.45;;;;;;;5.90;100.00;99813.44;4354271;32;20057;-76
2022/04/29 02:09:46;;;;;;;19.00;8.68;;;;;;;5.85;100.00;99807.88;4356767;32;20329;-76
2022/04/29 02:12:15;;;;;;;13.68;8.48;;;;;;;5.83;100.00;99811.56;4367682;32;20467;-76
2022/04/29 02:14:44;;;;;;;19.35;8.85;;;;;;;6.01;100.00;99834.28;4367618;32;20061;-76
2022/04/29 02:17:12;;;;;;;16.73;8.50;;;;;;;5.91;100.00;99836.50;4366010;32;20031;-76
2022/04/29 02:19:40;;;;;;;17.33;9.05;;;;;;;5.80;100.00;99819.16;4367635;32;20171;-79
2022/04/29 02:22:09;;;;;;;18.62;8.45;;;;;;;5.69;100.00;99804.50;4350641;32;20069;-76
2022/04/29 02:24:37;;;;;;;16.90;8.68;;;;;;;5.90;100.00;99842.84;4352511;33;20035;-76
2022/04/29 02:27:06;;;;;;;19.60;8.50;;;;;;;5.63;100.00;99810.66;4359455;32;20063;-76
2022/04/29 02:29:37;;;;;;;18.58;8.35;;;;;;;5.79;100.00;99837.06;4342620;32;20295;-77
2022/04/29 02:32:09;;;;;;;15.93;8.23;;;;;;;5.55;100.00;99795.63;4384874;32;20038;-76
2022/04/29 02:34:37;;;;;;;18.55;8.40;;;;;;;5.50;100.00;99798.06;4372889;32;20089;-76
2022/04/29 02:37:04;;;;;;;22.55;8.55;;;;;;;5.71;100.00;99839.06;4359507;32;20418;-76
2022/04/29 02:39:38;;;;;;;17.65;8.38;;;;;;;5.46;100.00;99805.63;4375387;32;20462;-76
2022/04/29 02:42:07;;;;;;;17.35;8.82;;;;;;;5.52;100.00;99819.22;4373443;32;20035;-76
2022/04/29 02:44:35;;;;;;;25.52;9.48;;;;;;;5.43;100.00;99797.22;4387431;32;20038;-79
2022/04/29 02:47:09;;;;;;;25.65;9.27;;;;;;;5.62;100.00;99838.41;4361427;32;20053;-76
2022/04/29 02:49:41;;;;;;;23.85;9.75;;;;;;;5.60;100.00;99827.06;4373339;32;20104;-77
2022/04/29 02:52:10;;;;;;;16.87;9.27;;;;;;;5.64;100.00;99825.66;4374260;32;20031;-76
2022/04/29 02:54:38;;;;;;;20.88;9.50;;;;;;;5.63;100.00;99832.03;4371496;32;20407;-77
2022/04/29 02:57:12;;;;;;;18.02;9.32;;;;;;;5.63;100.00;99837.38;4386822;32;20039;-77
2022/04/29 02:59:39;;;;;;;18.25;9.80;;;;;;;5.69;100.00;99831.22;4387861;32;20478;-76
2022/04/29 03:02:06;;;;;;;18.25;11.30;;;;;;;5.66;100.00;99836.97;4374127;32;20092;-76
2022/04/29 03:04:34;;;;;;;40.15;10.63;;;;;;;5.42;100.00;99796.38;4372122;32;20046;-76
2022/04/29 03:07:02;;;;;;;19.35;10.70;;;;;;;5.55;100.00;99808.16;4386772;32;20039;-76
2022/04/29 03:09:31;;;;;;;30.25;10.95;;;;;;;5.70;100.00;99822.22;4374689;32;20031;-76
2022/04/29 03:11:59;;;;;;;29.40;11.05;;;;;;;5.72;100.00;99822.81;4387090;32;20043;-76
2022/04/29 03:14:28;;;;;;;23.25;10.40;;;;;;;5.76;100.00;99831.25;4373600;32;20019;-78
2022/04/29 03:16:54;;;;;;;20.92;11.73;;;;;;;5.58;100.00;99802.41;4372362;32;20051;-76
2022/04/29 03:19:21;;;;;;;23.83;11.65;;;;;;;5.83;100.00;99832.94;4388034;32;20081;-76
2022/04/29 03:21:48;;;;;;;30.95;15.68;;;;;;;5.85;100.00;99834.59;4373141;32;20049;-76
2022/04/29 03:24:15;;;;;;;40.25;18.25;;;;;;;5.88;100.00;99834.22;4360802;32;20039;-76
2022/04/29 03:26:42;;;;;;;47.58;19.12;;;;;;;5.92;100.00;99840.78;4371438;32;20353;-79
2022/04/29 03:29:10;;;;;;;61.17;26.42;;;;;;;5.66;100.00;99804.91;4373958;32;20047;-76
2022/04/29 03:31:37;;;;;;;86.05;35.17;;;;;;;5.89;100.00;99839.34;4373603;32;20115;-77
2022/04/29 03:34:05;;;;;;;31.08;14.13;;;;;;;5.88;100.00;99843.03;4386282;32;20441;-76
2022/04/29 03:36:32;;;;;;;34.60;15.95;;;;;;;6.01;100.00;99850.31;4371068;32;20031;-79
2022/04/29 03:38:59;;;;;;;28.87;15.88;;;;;;;6.38;100.00;99850.84;4375771;32;20591;-76
2022/04/29 03:41:29;;;;;;;42.58;16.80;;;;;;;6.59;100.00;99851.72;4371128;32;20032;-76
2022/04/29 03:43:58;;;;;;;45.08;15.63;;;;;;;6.60;100.00;99848.03;4372598;32;20442;-77
2022/04/29 03:46:25;;;;;;;39.00;14.63;;;;;;;6.28;100.00;99818.31;4372249;32;20095;-79
2022/04/29 03:51:40;;;;;;;33.55;13.27;;;;;;;6.36;100.00;99855.59;4386011;32;20103;-76
2022/04/29 03:54:07;;;;;;;43.90;15.98;;;;;;;6.21;100.00;99814.78;4372216;32;20056;-79
2022/04/29 03:56:36;;;;;;;45.40;16.00;;;;;;;6.17;100.00;99839.28;4368115;32;20072;-76
2022/04/29 03:59:04;;;;;;;36.10;15.25;;;;;;;5.93;100.00;99818.41;4372077;32;20058;-76
2022/04/29 04:01:32;;;;;;;34.55;14.13;;;;;;;6.05;100.00;99842.72;4383484;32;20043;-75
2022/04/29 04:03:59;;;;;;;32.17;15.07;;;;;;;5.79;100.00;99807.66;4372255;32;20057;-75
2022/04/29 04:09:12;;;;;;;36.28;15.38;;;;;;;5.75;100.00;99813.59;4386354;32;20038;-76
2022/04/29 04:11:39;;;;;;;33.22;14.90;;;;;;;5.55;100.00;99778.75;4372670;32;20424;-80
2022/04/29 04:14:08;;;;;;;31.08;15.50;;;;;;;6.00;100.00;99838.00;4384876;32;20053;-76
2022/04/29 04:16:36;;;;;;;30.85;15.00;;;;;;;6.00;100.00;99846.03;4387008;32;20084;-76
2022/04/29 04:19:04;;;;;;;30.15;15.50;;;;;;;5.79;100.00;99807.66;4373286;32;20387;-76
2022/04/29 04:21:30;;;;;;;37.08;15.15;;;;;;;6.12;100.00;99836.38;4372851;32;20031;-79
2022/04/29 04:23:58;;;;;;;34.72;15.40;;;;;;;5.99;100.00;99810.41;4385204;32;20073;-81
2022/04/29 04:26:25;;;;;;;30.02;14.73;;;;;;;6.31;100.00;99850.84;4372228;32;20046;-77
2022/04/29 04:28:52;;;;;;;35.53;15.38;;;;;;;6.37;100.00;99849.22;4372870;32;20057;-76
2022/04/29 04:31:22;;;;;;;38.05;16.35;;;;;;;6.54;100.00;99845.16;4387676;32;20043;-74
2022/04/29 04:33:49;;;;;;;32.13;17.42;;;;;;;6.73;100.00;99842.69;4386561;32;20170;-73
2022/04/29 04:36:16;;;;;;;34.92;15.55;;;;;;;6.99;100.00;99846.41;4385350;32;20433;-74
2022/04/29 04:38:44;;;;;;;28.45;16.08;;;;;;;6.94;100.00;99811.37;4386236;32;20198;-72
2022/04/29 04:41:14;;;;;;;29.95;15.40;;;;;;;7.25;100.00;99841.03;4379682;32;20405;-75
2022/04/29 04:43:42;;;;;;;31.80;14.50;;;;;;;7.39;100.00;99851.75;4387383;32;20083;-74
2022/04/29 04:46:11;;;;;;;36.03;14.82;;;;;;;7.50;100.00;99864.50;4382423;32;20065;-78
2022/04/29 04:48:44;;;;;;;31.95;13.80;;;;;;;7.53;100.00;99848.00;4385401;32;20830;-75
2022/04/29 04:51:13;;;;;;;28.77;12.90;;;;;;;7.15;100.00;99784.41;4386122;32;20047;-74
2022/04/29 04:53:39;;;;;;;25.42;13.48;;;;;;;7.66;100.00;99862.38;4386068;32;20078;-73
2022/04/29 04:56:05;;;;;;;33.30;13.93;;;;;;;7.62;100.00;99857.44;4370538;32;20050;-78
2022/04/29 04:58:34;;;;;;;29.48;13.48;;;;;;;7.61;100.00;99860.34;4383444;32;20084;-73
2022/04/29 05:01:02;;;;;;;36.33;16.37;;;;;;;7.55;100.00;99853.97;4373225;32;20061;-73
2022/04/29 05:03:32;;;;;;;34.38;14.48;;;;;;;7.72;100.00;99866.91;4385520;32;20027;-73
2022/04/29 05:06:01;;;;;;;34.58;13.55;;;;;;;7.74;100.00;99859.50;4386024;32;20061;-73
2022/04/29 05:08:27;;;;;;;30.98;13.93;;;;;;;7.81;100.00;99871.00;4384643;32;20036;-77
2022/04/29 05:10:54;;;;;;;31.20;14.25;;;;;;;8.02;100.00;99877.13;4385595;32;20065;-72
2022/04/29 05:13:21;;;;;;;37.13;14.60;;;;;;;8.02;100.00;99869.09;4384894;32;20039;-72
2022/04/29 05:15:47;;;;;;;39.10;15.25;;;;;;;8.10;100.00;99874.22;4385657;32;20109;-72
2022/04/29 05:18:16;;;;;;;36.03;15.30;;;;;;;8.23;100.00;99879.50;4385018;32;20213;-76
2022/04/29 05:20:44;;;;;;;37.50;15.13;;;;;;;8.06;100.00;99852.38;4381531;32;20047;-72
2022/04/29 05:23:11;;;;;;;37.03;14.55;;;;;;;8.21;100.00;99854.75;4372178;32;20023;-71
2022/04/29 05:25:40;;;;;;;31.48;14.50;;;;;;;8.51;100.00;99878.37;4385604;32;20031;-71
2022/04/29 05:28:11;;;;;;;31.95;14.77;;;;;;;8.44;100.00;99853.44;4383801;32;20364;-72
2022/04/29 05:30:40;;;;;;;43.92;16.55;;;;;;;8.44;100.00;99848.06;4371371;32;20059;-71
2022/04/29 05:33:10;;;;;;;33.38;15.75;;;;;;;8.56;100.00;99851.72;4385660;32;20043;-72
2022/04/29 05:35:46;;;;;;;38.30;14.87;;;;;;;8.92;100.00;99893.22;4384610;32;20061;-73
2022/04/29 05:38:16;;;;;;;30.50;14.48;;;;;;;8.95;100.00;99891.94;4385200;32;20063;-70
2022/04/29 05:43:28;;;;;;;38.63;13.90;;;;;;;8.84;100.00;99855.84;4383828;32;20100;-75
2022/04/29 05:45:54;;;;;;;35.13;14.65;;;;;;;9.20;100.00;99894.63;4384420;32;20035;-73
2022/04/29 05:48:22;;;;;;;28.42;14.98;;;;;;;9.02;100.00;99860.50;4384254;32;20077;-71
2022/04/29 05:50:49;;;;;;;36.78;14.35;;;;;;;9.26;100.00;99899.12;4370171;32;20049;-73
2022/04/29 05:53:15;;;;;;;27.17;13.70;;;;;;;9.28;100.00;99902.41;4386623;32;20056;-71
2022/04/29 05:55:43;;;;;;;25.10;12.57;;;;;;;9.35;100.00;99903.19;4368228;32;20015;-75
2022/04/29 05:58:09;;;;;;;31.30;15.00;;;;;;;9.41;100.00;99896.94;4370092;32;20039;-73
2022/04/29 06:00:37;;;;;;;24.33;13.38;;;;;;;9.36;100.00;99880.63;4384869;32;20219;-71
2022/04/29 06:03:04;;;;;;;23.83;13.52;;;;;;;9.32;100.00;99875.91;4370468;32;20019;-71
2022/04/29 06:05:31;;;;;;;25.90;11.65;;;;;;;9.40;100.00;99878.34;4383867;32;20453;-71
2022/04/29 06:08:03;;;;;;;;;;;;;;;9.40;100.00;99868.41;4383265;32;20135;-72
2022/04/29 06:10:30;;;;;;;27.42;11.52;;;;;;;9.77;100.00;99911.47;4385584;32;19950;-71
2022/04/29 06:12:57;;;;;;;23.73;11.60;;;;;;;9.71;100.00;99911.56;4371900;32;20078;-71
2022/04/29 06:15:25;;;;;;;26.50;10.75;;;;;;;9.71;100.00;99900.78;4385531;32;20345;-70
2022/04/29 06:17:53;;;;;;;26.10;11.95;;;;;;;9.78;100.00;99918.50;4380787;32;20054;-76
2022/04/29 06:20:21;;;;;;;24.08;10.90;;;;;;;9.66;100.00;99876.44;4382213;32;20039;-73
2022/04/29 06:22:52;;;;;;;18.50;9.77;;;;;;;9.67;100.00;99873.53;4370849;32;20031;-71
2022/04/29 06:25:21;;;;;;;21.67;10.75;;;;;;;9.85;100.00;99909.56;4385364;32;20364;-72
2022/04/29 06:27:48;;;;;;;17.25;9.15;;;;;;;9.75;100.00;99888.56;4381559;32;20031;-77
2022/04/29 06:30:15;;;;;;;18.45;9.15;;;;;;;10.00;100.00;99920.75;4384416;32;20028;-72
2022/04/29 06:32:43;;;;;;;17.05;9.15;;;;;;;9.96;100.00;99915.00;4371824;32;20082;-72
2022/04/29 06:35:11;;;;;;;21.58;10.50;;;;;;;10.00;100.00;99926.97;4378640;32;20091;-71
2022/04/29 06:37:38;;;;;;;27.70;9.90;;;;;;;10.03;100.00;99927.56;4382228;32;20060;-72
2022/04/29 06:40:10;;;;;;;23.67;10.80;;;;;;;10.09;100.00;99924.78;4370090;32;20076;-73
2022/04/29 06:42:47;;;;;;;28.55;11.00;;;;;;;9.93;100.00;99893.13;4366598;32;20069;-73
2022/04/29 06:45:29;;;;;;;22.47;10.40;;;;;;;10.07;100.00;99889.22;4367491;32;20085;-74
2022/04/29 06:48:02;;;;;;;18.65;9.18;;;;;;;10.21;100.00;99926.72;4386291;32;20160;-73
2022/04/29 06:50:34;;;;;;;20.17;9.40;;;;;;;10.03;100.00;99879.94;4385932;32;20061;-74
2022/04/29 06:53:05;;;;;;;20.58;9.30;;;;;;;10.33;100.00;99924.97;4398687;32;20051;-76
2022/04/29 06:55:36;;;;;;;23.60;9.05;;;;;;;10.13;100.00;99888.31;4390383;32;20412;-72
2022/04/29 06:58:03;;;;;;;17.90;6.95;;;;;;;10.44;100.00;99937.66;4385574;32;20027;-73
2022/04/29 07:00:29;;;;;;;11.20;6.18;;;;;;;10.42;100.00;99931.69;4384509;32;20043;-74
2022/04/29 07:02:57;;;;;;;12.35;5.80;;;;;;;10.50;100.00;99931.38;4384047;32;20078;-73
2022/04/29 07:05:24;;;;;;;10.68;4.68;;;;;;;10.58;100.00;99943.72;4382989;32;20035;-74
2022/04/29 07:07:50;;;;;;;10.50;4.57;;;;;;;10.61;100.00;99926.25;4384887;32;20083;-72
2022/04/29 07:10:19;;;;;;;9.90;4.35;;;;;;;10.67;100.00;99938.81;4371659;32;20053;-73
2022/04/29 07:12:49;;;;;;;13.77;4.35;;;;;;;10.76;100.00;99945.53;4382771;32;20037;-74
2022/04/29 07:15:16;;;;;;;20.75;4.57;;;;;;;10.54;100.00;99911.00;4381487;32;20048;-72
2022/04/29 07:17:44;;;;;;;6.75;4.82;;;;;;;10.93;100.00;99945.72;4364227;32;20297;-72
2022/04/29 07:20:18;;;;;;;8.38;4.20;;;;;;;11.03;100.00;99939.78;4370768;32;20065;-73
2022/04/29 07:22:45;;;;;;;9.55;4.00;;;;;;;10.63;100.00;99891.84;4384787;32;20061;-72
2022/04/29 07:25:13;;;;;;;12.80;3.90;;;;;;;10.79;100.00;99912.75;4371500;32;20045;-73
2022/04/29 07:27:40;;;;;;;8.80;4.20;;;;;;;11.12;100.00;99938.38;4378483;32;20413;-72
2022/04/29 07:30:08;;;;;;;8.40;4.95;;;;;;;10.77;100.00;99925.63;4387533;32;20090;-73
2022/04/29 07:32:36;;;;;;;11.50;4.18;;;;;;;11.02;100.00;99932.72;4371001;32;20372;-72
2022/04/29 07:43:30;;;;;;;6.15;4.10;;;;;;;11.32;100.00;99942.63;4378777;32;20083;-73
2022/04/29 07:45:58;;;;;;;7.78;4.10;;;;;;;11.38;100.00;99945.22;4385006;32;20104;-76
2022/04/29 07:48:27;;;;;;;6.35;3.20;;;;;;;11.04;100.00;99914.44;4384270;32;20872;-74
2022/04/29 07:50:55;;;;;;;9.50;3.75;;;;;;;11.22;100.00;99941.31;4372713;32;20081;-73
2022/04/29 07:53:22;;;;;;;6.80;3.97;;;;;;;11.30;100.00;99944.75;4371476;32;20031;-74
2022/04/29 07:55:48;;;;;;;16.02;3.28;;;;;;;11.30;100.00;99936.66;4372306;32;20447;-73
2022/04/29 07:58:15;;;;;;;27.13;4.05;;;;;;;11.38;100.00;99939.03;4384404;32;20047;-73
2022/04/29 08:00:43;;;;;;;7.60;3.90;;;;;;;11.29;100.00;99910.75;4373095;32;20044;-74
2022/04/29 08:03:09;;;;;;;10.20;3.40;;;;;;;11.53;100.00;99938.56;4387119;32;20069;-74
2022/04/29 08:05:39;;;;;;;7.93;3.45;;;;;;;11.56;100.00;99938.09;4368388;32;20047;-73
2022/04/29 08:08:06;;;;;;;8.63;3.85;;;;;;;11.37;100.00;99913.09;4383333;32;20166;-74
2022/04/29 08:10:33;;;;;;;6.28;3.85;;;;;;;11.42;100.00;99910.50;4385022;32;20890;-73
2022/04/29 08:13:02;;;;;;;7.37;3.70;;;;;;;11.70;100.00;99944.09;4385918;32;20413;-75
2022/04/29 08:15:34;;;;;;;7.05;2.80;;;;;;;11.70;100.00;99941.38;4385814;32;20415;-74
2022/04/29 08:18:06;;;;;;;7.28;2.92;;;;;;;11.62;100.00;99940.66;4383681;32;20082;-74
2022/04/29 08:20:33;;;;;;;5.68;3.20;;;;;;;11.40;100.00;99912.63;4386071;32;20051;-72
2022/04/29 08:23:00;;;;;;;6.18;3.70;;;;;;;11.35;100.00;99901.72;4385880;32;20061;-74
2022/04/29 08:25:27;;;;;;;6.65;3.70;;;;;;;11.56;100.00;99938.09;4373114;32;20074;-73
2022/04/29 08:27:54;;;;;;;7.45;3.37;;;;;;;11.38;100.00;99893.19;4370861;32;20027;-77
2022/04/29 08:30:21;;;;;;;5.03;3.25;;;;;;;11.63;100.00;99936.91;4377147;32;20912;-73
2022/04/29 08:32:55;;;;;;;10.57;3.17;;;;;;;11.52;100.00;99905.38;4362782;32;20383;-73
2022/04/29 08:35:22;;;;;;;5.68;3.62;;;;;;;11.55;100.00;99910.31;4370384;32;20051;-74
2022/04/29 08:37:49;;;;;;;6.75;3.10;;;;;;;11.63;100.00;99915.34;4365904;32;20122;-77
2022/04/29 08:40:16;;;;;;;7.87;3.05;;;;;;;11.32;100.00;99872.53;4368622;32;20056;-75
2022/04/29 08:42:43;;;;;;;4.12;3.12;;;;;;;11.64;100.00;99908.87;4383430;32;20051;-75
2022/04/29 08:45:18;;;;;;;18.35;3.67;;;;;;;11.69;100.00;99920.84;4384810;32;20224;-74
2022/04/29 08:47:56;;;;;;;5.03;3.75;;;;;;;11.89;100.00;99932.09;4371561;32;20036;-74
2022/04/29 08:50:23;;;;;;;9.20;3.67;;;;;;;11.80;100.00;99918.13;4380848;32;20620;-74
2022/04/29 08:52:50;;;;;;;6.37;3.45;;;;;;;11.63;100.00;99891.06;4358609;32;20081;-75
2022/04/29 09:00:48;;;;;;;11.18;3.33;;;;;;;11.52;100.00;99888.34;4386782;32;20055;-72
2022/04/29 09:03:18;;;;;;;7.20;2.62;;;;;;;11.60;100.00;99888.84;4371556;32;20051;-73
2022/04/29 09:05:46;;;;;;;5.18;3.30;;;;;;;11.96;100.00;99927.41;4369485;32;20073;-73
2022/04/29 09:08:15;;;;;;;7.45;2.67;;;;;;;11.96;100.00;99919.31;4377429;32;20043;-74
2022/04/29 09:10:56;;;;;;;8.68;3.12;;;;;;;11.96;100.00;99911.22;4386047;32;20051;-73
2022/04/29 09:13:24;;;;;;;9.95;3.30;;;;;;;11.75;100.00;99879.44;4371325;32;20372;-76
2022/04/29 09:15:58;;;;;;;4.95;2.85;;;;;;;12.11;100.00;99934.19;4372612;32;20051;-74
2022/04/29 09:18:34;;;;;;;4.05;3.00;;;;;;;12.09;100.00;99922.81;4385549;32;20066;-73
2022/04/29 09:21:18;;;;;;;10.07;3.15;;;;;;;12.26;100.00;99921.03;4384323;32;20043;-78
2022/04/29 09:23:56;;;;;;;8.32;3.37;;;;;;;12.33;100.00;99921.72;4383788;32;20425;-74
2022/04/29 09:26:33;;;;;;;10.10;3.08;;;;;;;12.38;99.51;99912.06;4370581;32;20057;-77
2022/04/29 09:29:12;;;;;;;6.37;2.80;;;;;;;12.40;99.68;99909.94;4385285;32;20461;-75
2022/04/29 09:31:53;;;;;;;5.12;2.97;;;;;;;12.44;98.80;99911.91;4383890;32;20356;-73
2022/04/29 09:34:42;;;;;;;5.65;3.00;;;;;;;12.50;92.46;99905.56;4382539;32;20061;-74
2022/04/29 09:37:16;;;;;;;4.47;3.00;;;;;;;12.72;95.03;99908.41;4383460;32;20047;-73
2022/04/29 09:39:54;;;;;;;5.15;3.20;;;;;;;12.87;90.67;99909.75;4366361;32;20027;-74
2022/04/29 09:42:21;;;;;;;6.68;3.53;;;;;;;12.81;87.30;99899.91;4385186;32;20051;-73
2022/04/29 09:44:48;;;;;;;6.55;3.40;;;;;;;12.67;93.26;99878.59;4385196;32;20101;-73
2022/04/29 09:47:19;;;;;;;5.62;2.95;;;;;;;12.77;92.06;99910.37;4371912;32;20056;-73
2022/04/29 09:49:53;;;;;;;9.52;2.78;;;;;;;12.75;95.95;99906.28;4382921;32;20048;-74
2022/04/29 09:52:20;;;;;;;4.87;2.85;;;;;;;12.88;82.96;99911.41;4358332;32;20048;-73
2022/04/29 09:54:47;;;;;;;14.80;3.17;;;;;;;12.81;83.87;99910.72;4365014;32;20472;-74
2022/04/29 09:57:19;;;;;;;2.70;2.50;;;;;;;12.58;90.63;99901.66;4383996;32;20047;-78
2022/04/29 09:59:47;;;;;;;3.10;2.47;;;;;;;12.92;90.22;99900.91;4384941;32;20460;-73
2022/04/29 10:02:23;;;;;;;3.50;2.20;;;;;;;12.83;88.57;99854.56;4365772;32;20052;-73
2022/04/29 10:04:51;;;;;;;2.65;2.20;;;;;;;12.85;69.87;99864.03;4372072;32;20494;-73
2022/04/29 10:07:19;;;;;;;8.23;2.15;;;;;;;13.05;61.89;99911.41;4384667;32;20019;-77
2022/04/29 10:09:50;;;;;;;2.10;1.90;;;;;;;12.80;60.48;99866.66;4385440;32;20061;-74
2022/04/29 10:12:20;;;;;;;7.10;2.22;;;;;;;13.15;56.08;99905.38;4386108;32;20466;-73
2022/04/29 10:14:51;;;;;;;6.20;2.00;;;;;;;12.94;56.22;99872.59;4383922;32;20340;-74
2022/04/29 10:23:11;;;;;;;2.83;2.20;;;;;;;13.20;50.07;99891.94;4369147;32;20371;-75
2022/04/29 10:25:43;;;;;;;3.22;1.80;;;;;;;13.39;50.42;99911.47;4370853;32;20094;-72
2022/04/29 10:28:15;;;;;;;2.10;1.98;;;;;;;13.40;48.11;99908.50;4384643;32;20299;-73
2022/04/29 10:30:41;;;;;;;2.78;1.35;;;;;;;13.27;46.79;99898.81;4383149;32;20069;-73
2022/04/29 10:33:09;;;;;;;5.47;1.75;;;;;;;13.19;42.61;99890.28;4371534;32;20077;-72
2022/04/29 10:35:46;;;;;;;2.25;1.77;;;;;;;13.39;42.57;99889.81;4385253;32;20348;-72
2022/04/29 10:38:14;;;;;;;9.00;1.75;;;;;;;13.57;44.02;99891.44;4370551;32;20054;-73
2022/04/29 10:40:42;;;;;;;3.15;1.83;;;;;;;13.91;44.68;99891.34;4383844;32;20040;-72
2022/04/29 10:43:10;;;;;;;5.97;1.98;;;;;;;13.87;40.43;99896.47;4385277;32;20032;-72
2022/04/29 10:46:20;;;;;;;4.57;2.17;;;;;;;13.49;37.49;99894.56;4385979;32;20189;-73
2022/04/29 10:48:54;;;;;;;7.68;1.87;;;;;;;13.76;40.40;99879.25;4373965;32;20057;-73
2022/04/29 10:51:25;;;;;;;2.17;1.40;;;;;;;13.97;37.18;99863.28;4382677;32;20054;-73
2022/04/29 10:53:56;;;;;;;4.65;1.45;;;;;;;14.09;34.05;99899.19;4376055;32;20040;-73
2022/04/29 10:56:37;;;;;;;2.28;1.62;;;;;;;14.16;33.78;99888.97;4372560;32;20043;-73
2022/04/29 10:59:04;;;;;;;3.37;1.50;;;;;;;14.04;35.64;99863.91;4370644;32;20031;-74
2022/04/29 11:01:33;;;;;;;1.60;1.42;;;;;;;14.31;34.98;99876.66;4372813;32;20047;-74
2022/04/29 11:04:00;;;;;;;2.28;1.70;;;;;;;14.67;34.95;99882.50;4372923;32;20100;-72
2022/04/29 11:06:40;;;;;;;2.72;1.75;;;;;;;15.13;34.86;99891.06;4371218;32;20464;-73
2022/04/29 11:09:28;;;;;;;5.47;2.33;;;;;;;15.29;34.87;99848.59;4372282;32;20441;-74
2022/04/29 11:11:55;;;;;;;2.40;1.75;;;;;;;16.31;35.04;99872.75;4386340;32;20068;-73
2022/04/29 11:15:06;;;;;;;5.62;2.10;;;;;;;16.65;34.47;99872.28;4364645;32;20054;-78
2022/04/29 11:17:38;;;;;;;2.17;1.85;;;;;;;16.47;33.92;99876.34;4375141;32;20383;-75
2022/04/29 11:20:32;;;;;;;2.37;1.85;;;;;;;16.88;33.99;99881.03;4369918;32;20043;-75
2022/04/29 11:25:52;;;;;;;7.28;1.35;;;;;;;16.49;32.51;99873.34;4385419;32;20104;-74
2022/04/29 11:28:20;;;;;;;3.55;2.05;;;;;;;16.73;32.97;99840.22;4387498;32;20038;-73
2022/04/29 11:30:57;;;;;;;2.12;1.40;;;;;;;17.51;31.95;99878.03;4386123;32;20039;-74
2022/04/29 11:33:26;;;;;;;2.15;1.27;;;;;;;17.17;31.68;99867.72;4371309;32;20446;-76
2022/04/29 11:36:03;;;;;;;2.65;1.45;;;;;;;17.31;31.14;99868.00;4386300;32;20055;-74
2022/04/29 11:38:31;;;;;;;1.95;1.52;;;;;;;17.39;30.50;99883.78;4373514;32;20036;-74
2022/04/29 11:41:01;;;;;;;2.62;1.73;;;;;;;17.22;29.32;99842.44;4386160;32;20102;-76
2022/04/29 11:43:29;;;;;;;2.35;1.60;;;;;;;17.77;29.28;99859.75;4386263;32;20112;-73
2022/04/29 11:46:15;;;;;;;1.55;1.42;;;;;;;17.92;29.22;99833.56;4387455;32;20072;-73
2022/04/29 11:48:59;;;;;;;9.85;1.67;;;;;;;18.17;29.92;99861.78;4387267;32;20046;-73
2022/04/29 11:51:27;;;;;;;4.60;1.15;;;;;;;18.38;29.16;99854.31;4386286;32;20068;-73
2022/04/29 11:53:56;;;;;;;5.70;1.50;;;;;;;18.42;30.92;99856.19;4373988;32;20046;-73
2022/04/29 11:56:29;;;;;;;2.80;1.65;;;;;;;18.43;29.89;99857.84;4387122;32;20391;-73
2022/04/29 11:58:56;;;;;;;6.07;1.62;;;;;;;18.49;29.99;99854.00;4386972;32;20065;-73
2022/04/29 12:01:26;;;;;;;2.22;1.40;;;;;;;18.63;30.39;99864.25;4386892;32;20053;-74
2022/04/29 12:03:53;;;;;;;1.73;1.62;;;;;;;18.92;29.74;99849.88;4386717;32;20486;-72
2022/04/29 12:06:20;;;;;;;5.00;1.12;;;;;;;18.71;29.41;99852.75;4369544;32;20156;-73